sensor_id;sensor_type;location;lat;lon;timestamp;temperature;humidity
15239;DHT22;7722;53.274;9.500;2022-12-29T00:01:36;8.20;99.90
15239;DHT22;7722;53.274;9.500;2022-12-29T00:04:04;8.20;99.90
15239;DHT22;7722;53.274;9.500;2022-12-29T00:06:31;8.20;99.90
15239;DHT22;7722;53.274;9.500;2022-12-29T00:08:58;8.20;99.90
15239;DHT22;7722;53.274;9.500;2022-12-29T00:11:27;8.30;99.90
15239;DHT22;7722;53.274;9.500;2022-12-29T00:13:54;8.40;99.90
15239;DHT22;7722;53.274;9.500;2022-12-29T00:16:42;8.40;99.90
15239;DHT22;7722;53.274;9.500;2022-12-29T00:19:11;8.40;99.90
15239;DHT22;7722;53.274;9.500;2022-12-29T00:21:52;8.40;99.90
15239;DHT22;7722;53.274;9.500;2022-12-29T00:24:36;8.40;99.90
15239;DHT22;7722;53.274;9.500;2022-12-29T00:27:21;8.40;99.90
15239;DHT22;7722;53.274;9.500;2022-12-29T00:30:09;8.50;99.90
15239;DHT22;7722;53.274;9.500;2022-12-29T00:32:55;8.60;99.90
15239;DHT22;7722;53.274;9.500;2022-12-29T00:35:44;8.70;99.90
15239;DHT22;7722;53.274;9.500;2022-12-29T00:38:13;8.60;99.90
15239;DHT22;7722;53.274;9.500;2022-12-29T00:40:58;8.70;99.90
15239;DHT22;7722;53.274;9.500;2022-12-29T00:43:43;8.60;99.90
15239;DHT22;7722;53.274;9.500;2022-12-29T00:46:42;8.70;99.90
15239;DHT22;7722;53.274;9.500;2022-12-29T00:49:13;8.70;99.90
15239;DHT22;7722;53.274;9.500;2022-12-29T00:52:01;8.60;99.90
15239;DHT22;7722;53.274;9.500;2022-12-29T00:54:30;8.60;99.90
15239;DHT22;7722;53.274;9.500;2022-12-29T00:56:58;8.50;99.90
15239;DHT22;7722;53.274;9.500;2022-12-29T00:59:25;8.50;99.90
15239;DHT22;7722;53.274;9.500;2022-12-29T01:01:53;8.50;99.90
15239;DHT22;7722;53.274;9.500;2022-12-29T01:04:24;8.50;99.90
15239;DHT22;7722;53.274;9.500;2022-12-29T01:06:51;8.60;99.90
15239;DHT22;7722;53.274;9.500;2022-12-29T01:09:19;8.60;99.90
15239;DHT22;7722;53.274;9.500;2022-12-29T01:12:04;8.50;99.90
15239;DHT22;7722;53.274;9.500;2022-12-29T01:14:32;8.50;99.90
15239;DHT22;7722;53.274;9.500;2022-12-29T01:16:59;8.60;99.90
15239;DHT22;7722;53.274;9.500;2022-12-29T01:19:27;8.60;99.90
15239;DHT22;7722;53.274;9.500;2022-12-29T01:21:55;8.60;99.90
15239;DHT22;7722;53.274;9.500;2022-12-29T01:24:22;8.60;99.90
15239;DHT22;7722;53.274;9.500;2022-12-29T01:26:49;8.60;99.90
15239;DHT22;7722;53.274;9.500;2022-12-29T01:29:16;8.70;99.90
15239;DHT22;7722;53.274;9.500;2022-12-29T01:31:44;8.70;99.90
15239;DHT22;7722;53.274;9.500;2022-12-29T01:34:11;8.80;99.90
15239;DHT22;7722;53.274;9.500;2022-12-29T01:36:40;8.70;99.90
15239;DHT22;7722;53.274;9.500;2022-12-29T01:39:07;8.80;99.90
15239;DHT22;7722;53.274;9.500;2022-12-29T01:41:34;8.80;99.90
15239;DHT22;7722;53.274;9.500;2022-12-29T01:44:01;8.70;99.90
15239;DHT22;7722;53.274;9.500;2022-12-29T01:46:31;8.80;99.90
15239;DHT22;7722;53.274;9.500;2022-12-29T01:49:05;8.80;99.90
15239;DHT22;7722;53.274;9.500;2022-12-29T01:51:41;8.80;99.90
15239;DHT22;7722;53.274;9.500;2022-12-29T01:54:12;8.80;99.90
15239;DHT22;7722;53.274;9.500;2022-12-29T01:56:40;8.70;99.90
15239;DHT22;7722;53.274;9.500;2022-12-29T01:59:11;8.80;99.90
15239;DHT22;7722;53.274;9.500;2022-12-29T02:01:39;8.80;99.90
15239;DHT22;7722;53.274;9.500;2022-12-29T02:04:08;8.90;99.90
15239;DHT22;7722;53.274;9.500;2022-12-29T02:06:41;8.80;99.90
15239;DHT22;7722;53.274;9.500;2022-12-29T02:09:10;8.90;99.90
15239;DHT22;7722;53.274;9.500;2022-12-29T02:11:38;8.80;99.90
15239;DHT22;7722;53.274;9.500;2022-12-29T02:14:09;8.90;99.90
15239;DHT22;7722;53.274;9.500;2022-12-29T02:16:48;8.90;99.90
15239;DHT22;7722;53.274;9.500;2022-12-29T02:22:26;9.00;99.90
15239;DHT22;7722;53.274;9.500;2022-12-29T02:25:15;9.00;99.90
15239;DHT22;7722;53.274;9.500;2022-12-29T02:28:03;8.90;99.90
15239;DHT22;7722;53.274;9.500;2022-12-29T02:30:44;9.00;99.90
15239;DHT22;7722;53.274;9.500;2022-12-29T02:33:21;9.10;99.90
15239;DHT22;7722;53.274;9.500;2022-12-29T02:35:56;9.00;99.90
15239;DHT22;7722;53.274;9.500;2022-12-29T02:38:35;9.10;99.90
15239;DHT22;7722;53.274;9.500;2022-12-29T02:41:07;9.10;99.90
15239;DHT22;7722;53.274;9.500;2022-12-29T02:43:41;9.10;99.90
15239;DHT22;7722;53.274;9.500;2022-12-29T02:46:18;9.10;99.90
15239;DHT22;7722;53.274;9.500;2022-12-29T02:48:50;9.10;99.90
15239;DHT22;7722;53.274;9.500;2022-12-29T02:51:23;9.20;99.90
15239;DHT22;7722;53.274;9.500;2022-12-29T02:53:52;9.20;99.90
15239;DHT22;7722;53.274;9.500;2022-12-29T02:56:37;9.20;99.90
15239;DHT22;7722;53.274;9.500;2022-12-29T02:59:05;9.20;99.90
15239;DHT22;7722;53.274;9.500;2022-12-29T03:01:43;9.30;99.90
15239;DHT22;7722;53.274;9.500;2022-12-29T03:04:38;9.20;99.90
15239;DHT22;7722;53.274;9.500;2022-12-29T03:07:09;9.20;99.90
15239;DHT22;7722;53.274;9.500;2022-12-29T03:09:46;9.20;99.90
15239;DHT22;7722;53.274;9.500;2022-12-29T03:12:23;9.30;99.90
15239;DHT22;7722;53.274;9.500;2022-12-29T03:15:12;9.30;99.90
15239;DHT22;7722;53.274;9.500;2022-12-29T03:18:03;9.30;99.90
15239;DHT22;7722;53.274;9.500;2022-12-29T03:20:36;9.30;99.90
15239;DHT22;7722;53.274;9.500;2022-12-29T03:23:05;9.40;99.90
15239;DHT22;7722;53.274;9.500;2022-12-29T03:25:36;9.40;99.90
15239;DHT22;7722;53.274;9.500;2022-12-29T03:28:07;9.40;99.90
15239;DHT22;7722;53.274;9.500;2022-12-29T03:30:36;9.40;99.90
15239;DHT22;7722;53.274;9.500;2022-12-29T03:33:09;9.50;99.90
15239;DHT22;7722;53.274;9.500;2022-12-29T03:35:39;9.50;99.90
15239;DHT22;7722;53.274;9.500;2022-12-29T03:38:10;9.60;99.90
15239;DHT22;7722;53.274;9.500;2022-12-29T03:40:40;9.70;99.90
15239;DHT22;7722;53.274;9.500;2022-12-29T03:43:08;9.60;99.90
15239;DHT22;7722;53.274;9.500;2022-12-29T03:45:36;9.70;99.90
15239;DHT22;7722;53.274;9.500;2022-12-29T03:48:05;9.70;99.90
15239;DHT22;7722;53.274;9.500;2022-12-29T03:50:32;9.70;99.90
15239;DHT22;7722;53.274;9.500;2022-12-29T03:52:59;9.80;99.90
15239;DHT22;7722;53.274;9.500;2022-12-29T03:55:26;9.80;99.90
15239;DHT22;7722;53.274;9.500;2022-12-29T03:57:53;9.80;99.90
15239;DHT22;7722;53.274;9.500;2022-12-29T04:00:20;9.80;99.90
15239;DHT22;7722;53.274;9.500;2022-12-29T04:02:47;9.80;99.90
15239;DHT22;7722;53.274;9.500;2022-12-29T04:05:16;9.70;99.90
15239;DHT22;7722;53.274;9.500;2022-12-29T04:07:43;9.80;99.90
15239;DHT22;7722;53.274;9.500;2022-12-29T04:10:10;9.80;99.90
15239;DHT22;7722;53.274;9.500;2022-12-29T04:12:37;9.80;99.90
15239;DHT22;7722;53.274;9.500;2022-12-29T04:15:05;9.80;99.90
15239;DHT22;7722;53.274;9.500;2022-12-29T04:17:32;9.90;99.90
15239;DHT22;7722;53.274;9.500;2022-12-29T04:19:59;9.90;99.90
15239;DHT22;7722;53.274;9.500;2022-12-29T04:22:41;9.90;99.90
15239;DHT22;7722;53.274;9.500;2022-12-29T04:25:08;10.00;99.90
15239;DHT22;7722;53.274;9.500;2022-12-29T04:27:35;10.00;99.90
15239;DHT22;7722;53.274;9.500;2022-12-29T04:30:03;9.90;99.90
15239;DHT22;7722;53.274;9.500;2022-12-29T04:32:30;10.00;99.90
15239;DHT22;7722;53.274;9.500;2022-12-29T04:34:57;9.90;99.90
15239;DHT22;7722;53.274;9.500;2022-12-29T04:37:24;9.90;99.90
15239;DHT22;7722;53.274;9.500;2022-12-29T04:39:53;9.90;99.90
15239;DHT22;7722;53.274;9.500;2022-12-29T04:42:20;9.80;99.90
15239;DHT22;7722;53.274;9.500;2022-12-29T04:44:47;9.90;99.90
15239;DHT22;7722;53.274;9.500;2022-12-29T04:47:14;9.90;99.90
15239;DHT22;7722;53.274;9.500;2022-12-29T04:49:41;9.80;99.90
15239;DHT22;7722;53.274;9.500;2022-12-29T04:52:08;9.80;99.90
15239;DHT22;7722;53.274;9.500;2022-12-29T04:54:35;9.80;99.90
15239;DHT22;7722;53.274;9.500;2022-12-29T04:57:03;9.80;99.90
15239;DHT22;7722;53.274;9.500;2022-12-29T04:59:30;9.70;99.90
15239;DHT22;7722;53.274;9.500;2022-12-29T05:01:57;9.80;99.90
15239;DHT22;7722;53.274;9.500;2022-12-29T05:04:24;9.70;99.90
15239;DHT22;7722;53.274;9.500;2022-12-29T05:06:51;9.70;99.90
15239;DHT22;7722;53.274;9.500;2022-12-29T05:09:18;9.80;99.90
15239;DHT22;7722;53.274;9.500;2022-12-29T05:11:45;9.70;99.90
15239;DHT22;7722;53.274;9.500;2022-12-29T05:14:14;9.80;99.90
15239;DHT22;7722;53.274;9.500;2022-12-29T05:16:41;9.80;99.90
15239;DHT22;7722;53.274;9.500;2022-12-29T05:19:08;9.80;99.90
15239;DHT22;7722;53.274;9.500;2022-12-29T05:21:35;9.80;99.90
15239;DHT22;7722;53.274;9.500;2022-12-29T05:24:02;9.80;99.90
15239;DHT22;7722;53.274;9.500;2022-12-29T05:26:29;9.80;99.90
15239;DHT22;7722;53.274;9.500;2022-12-29T05:28:56;9.80;99.90
15239;DHT22;7722;53.274;9.500;2022-12-29T05:31:24;9.80;99.90
15239;DHT22;7722;53.274;9.500;2022-12-29T05:33:51;9.80;99.90
15239;DHT22;7722;53.274;9.500;2022-12-29T05:36:19;9.80;99.90
15239;DHT22;7722;53.274;9.500;2022-12-29T05:38:46;9.80;99.90
15239;DHT22;7722;53.274;9.500;2022-12-29T05:41:13;9.90;99.90
15239;DHT22;7722;53.274;9.500;2022-12-29T05:43:40;9.90;99.90
15239;DHT22;7722;53.274;9.500;2022-12-29T05:46:07;10.00;99.90
15239;DHT22;7722;53.274;9.500;2022-12-29T05:48:35;10.00;99.90
15239;DHT22;7722;53.274;9.500;2022-12-29T05:51:02;10.00;99.90
15239;DHT22;7722;53.274;9.500;2022-12-29T05:53:29;10.00;99.90
15239;DHT22;7722;53.274;9.500;2022-12-29T05:55:56;9.90;99.90
15239;DHT22;7722;53.274;9.500;2022-12-29T05:58:23;9.90;99.90
15239;DHT22;7722;53.274;9.500;2022-12-29T06:00:51;9.90;99.90
15239;DHT22;7722;53.274;9.500;2022-12-29T06:03:18;9.70;99.90
15239;DHT22;7722;53.274;9.500;2022-12-29T06:05:46;9.50;99.90
15239;DHT22;7722;53.274;9.500;2022-12-29T06:08:13;9.50;99.90
15239;DHT22;7722;53.274;9.500;2022-12-29T06:10:40;9.40;99.90
15239;DHT22;7722;53.274;9.500;2022-12-29T06:13:07;9.40;99.90
15239;DHT22;7722;53.274;9.500;2022-12-29T06:15:35;9.40;99.90
15239;DHT22;7722;53.274;9.500;2022-12-29T06:18:02;9.40;99.90
15239;DHT22;7722;53.274;9.500;2022-12-29T06:20:29;9.60;99.90
15239;DHT22;7722;53.274;9.500;2022-12-29T06:22:57;9.60;99.90
15239;DHT22;7722;53.274;9.500;2022-12-29T06:25:24;9.60;99.90
15239;DHT22;7722;53.274;9.500;2022-12-29T06:27:51;9.70;99.90
15239;DHT22;7722;53.274;9.500;2022-12-29T06:30:18;9.70;99.90
15239;DHT22;7722;53.274;9.500;2022-12-29T06:32:45;9.70;99.90
15239;DHT22;7722;53.274;9.500;2022-12-29T06:35:12;9.70;99.90
15239;DHT22;7722;53.274;9.500;2022-12-29T06:37:39;9.70;99.90
15239;DHT22;7722;53.274;9.500;2022-12-29T06:40:09;9.70;99.90
15239;DHT22;7722;53.274;9.500;2022-12-29T06:42:37;9.70;99.90
15239;DHT22;7722;53.274;9.500;2022-12-29T06:45:05;9.60;99.90
15239;DHT22;7722;53.274;9.500;2022-12-29T06:47:33;9.70;99.90
15239;DHT22;7722;53.274;9.500;2022-12-29T06:50:00;9.80;99.90
15239;DHT22;7722;53.274;9.500;2022-12-29T06:52:27;9.80;99.90
15239;DHT22;7722;53.274;9.500;2022-12-29T06:54:54;9.90;99.90
15239;DHT22;7722;53.274;9.500;2022-12-29T06:57:23;10.00;99.90
15239;DHT22;7722;53.274;9.500;2022-12-29T06:59:52;9.90;99.90
15239;DHT22;7722;53.274;9.500;2022-12-29T07:02:21;10.00;99.90
15239;DHT22;7722;53.274;9.500;2022-12-29T07:04:48;9.90;99.90
15239;DHT22;7722;53.274;9.500;2022-12-29T07:07:15;9.90;99.90
15239;DHT22;7722;53.274;9.500;2022-12-29T07:09:42;9.90;99.90
15239;DHT22;7722;53.274;9.500;2022-12-29T07:12:09;9.90;99.90
15239;DHT22;7722;53.274;9.500;2022-12-29T07:14:37;9.80;99.90
15239;DHT22;7722;53.274;9.500;2022-12-29T07:17:05;9.80;99.90
15239;DHT22;7722;53.274;9.500;2022-12-29T07:19:32;9.80;99.90
15239;DHT22;7722;53.274;9.500;2022-12-29T07:21:59;9.80;99.90
15239;DHT22;7722;53.274;9.500;2022-12-29T07:24:26;9.80;99.90
15239;DHT22;7722;53.274;9.500;2022-12-29T07:26:53;9.80;99.90
15239;DHT22;7722;53.274;9.500;2022-12-29T07:29:20;9.80;99.90
15239;DHT22;7722;53.274;9.500;2022-12-29T07:31:49;9.80;99.90
15239;DHT22;7722;53.274;9.500;2022-12-29T07:34:16;9.80;99.90
15239;DHT22;7722;53.274;9.500;2022-12-29T07:36:43;9.70;99.90
15239;DHT22;7722;53.274;9.500;2022-12-29T07:39:10;9.60;99.90
15239;DHT22;7722;53.274;9.500;2022-12-29T07:41:37;9.60;99.90
15239;DHT22;7722;53.274;9.500;2022-12-29T07:44:04;9.70;99.90
15239;DHT22;7722;53.274;9.500;2022-12-29T07:46:31;9.70;99.90
15239;DHT22;7722;53.274;9.500;2022-12-29T07:48:59;9.50;99.90
15239;DHT22;7722;53.274;9.500;2022-12-29T07:51:26;9.50;99.90
15239;DHT22;7722;53.274;9.500;2022-12-29T07:53:53;9.40;99.90
15239;DHT22;7722;53.274;9.500;2022-12-29T07:56:20;9.40;99.90
15239;DHT22;7722;53.274;9.500;2022-12-29T07:58:47;9.20;99.90
15239;DHT22;7722;53.274;9.500;2022-12-29T08:01:15;9.30;99.90
15239;DHT22;7722;53.274;9.500;2022-12-29T08:03:41;9.30;99.90
15239;DHT22;7722;53.274;9.500;2022-12-29T08:06:11;9.20;99.90
15239;DHT22;7722;53.274;9.500;2022-12-29T08:08:38;9.10;99.90
15239;DHT22;7722;53.274;9.500;2022-12-29T08:11:05;9.20;99.90
15239;DHT22;7722;53.274;9.500;2022-12-29T08:13:32;9.10;99.90
15239;DHT22;7722;53.274;9.500;2022-12-29T08:15:59;9.10;99.90
15239;DHT22;7722;53.274;9.500;2022-12-29T08:18:26;9.00;99.90
15239;DHT22;7722;53.274;9.500;2022-12-29T08:20:53;9.10;99.90
15239;DHT22;7722;53.274;9.500;2022-12-29T08:23:21;9.20;99.90
15239;DHT22;7722;53.274;9.500;2022-12-29T08:25:57;9.10;99.90
15239;DHT22;7722;53.274;9.500;2022-12-29T08:28:24;9.20;99.90
15239;DHT22;7722;53.274;9.500;2022-12-29T08:30:51;9.20;99.90
15239;DHT22;7722;53.274;9.500;2022-12-29T08:33:18;9.20;99.90
15239;DHT22;7722;53.274;9.500;2022-12-29T08:35:45;9.20;99.90
15239;DHT22;7722;53.274;9.500;2022-12-29T08:38:12;9.20;99.90
15239;DHT22;7722;53.274;9.500;2022-12-29T08:40:41;9.10;99.90
15239;DHT22;7722;53.274;9.500;2022-12-29T08:43:08;9.10;99.90
15239;DHT22;7722;53.274;9.500;2022-12-29T08:45:36;9.10;99.90
15239;DHT22;7722;53.274;9.500;2022-12-29T08:48:03;9.10;99.90
15239;DHT22;7722;53.274;9.500;2022-12-29T08:50:30;9.10;99.90
15239;DHT22;7722;53.274;9.500;2022-12-29T08:52:57;9.10;99.90
15239;DHT22;7722;53.274;9.500;2022-12-29T08:55:24;9.00;99.90
15239;DHT22;7722;53.274;9.500;2022-12-29T08:57:53;8.90;99.90
15239;DHT22;7722;53.274;9.500;2022-12-29T09:00:20;9.00;99.90
15239;DHT22;7722;53.274;9.500;2022-12-29T09:02:47;9.00;99.90
15239;DHT22;7722;53.274;9.500;2022-12-29T09:05:14;9.10;99.90
15239;DHT22;7722;53.274;9.500;2022-12-29T09:07:41;9.20;99.90
15239;DHT22;7722;53.274;9.500;2022-12-29T09:10:09;9.20;99.90
15239;DHT22;7722;53.274;9.500;2022-12-29T09:12:36;9.20;99.90
15239;DHT22;7722;53.274;9.500;2022-12-29T09:15:06;9.20;99.90
15239;DHT22;7722;53.274;9.500;2022-12-29T09:17:33;9.20;99.90
15239;DHT22;7722;53.274;9.500;2022-12-29T09:20:11;9.30;99.90
15239;DHT22;7722;53.274;9.500;2022-12-29T09:22:38;9.30;99.90
15239;DHT22;7722;53.274;9.500;2022-12-29T09:25:06;9.30;99.90
15239;DHT22;7722;53.274;9.500;2022-12-29T09:27:34;9.40;99.90
15239;DHT22;7722;53.274;9.500;2022-12-29T09:30:02;9.50;99.90
15239;DHT22;7722;53.274;9.500;2022-12-29T09:32:31;9.60;99.90
15239;DHT22;7722;53.274;9.500;2022-12-29T09:34:58;9.60;99.90
15239;DHT22;7722;53.274;9.500;2022-12-29T09:37:25;9.60;99.90
15239;DHT22;7722;53.274;9.500;2022-12-29T09:39:52;9.60;99.90
15239;DHT22;7722;53.274;9.500;2022-12-29T09:42:23;9.70;99.90
15239;DHT22;7722;53.274;9.500;2022-12-29T09:45:00;9.80;99.90
15239;DHT22;7722;53.274;9.500;2022-12-29T09:47:32;9.80;99.90
15239;DHT22;7722;53.274;9.500;2022-12-29T09:50:03;9.80;99.90
15239;DHT22;7722;53.274;9.500;2022-12-29T09:52:34;9.80;99.90
15239;DHT22;7722;53.274;9.500;2022-12-29T09:55:04;9.80;99.90
15239;DHT22;7722;53.274;9.500;2022-12-29T09:57:36;9.80;99.90
15239;DHT22;7722;53.274;9.500;2022-12-29T10:00:10;9.70;99.90
15239;DHT22;7722;53.274;9.500;2022-12-29T10:02:42;9.70;99.90
15239;DHT22;7722;53.274;9.500;2022-12-29T10:05:26;9.70;99.90
15239;DHT22;7722;53.274;9.500;2022-12-29T10:08:18;9.90;99.90
15239;DHT22;7722;53.274;9.500;2022-12-29T10:10:54;10.00;99.90
15239;DHT22;7722;53.274;9.500;2022-12-29T10:13:30;10.00;99.90
15239;DHT22;7722;53.274;9.500;2022-12-29T10:16:04;9.90;99.90
15239;DHT22;7722;53.274;9.500;2022-12-29T10:18:54;10.00;99.90
15239;DHT22;7722;53.274;9.500;2022-12-29T10:21:32;10.00;99.90
15239;DHT22;7722;53.274;9.500;2022-12-29T10:24:02;10.10;99.90
15239;DHT22;7722;53.274;9.500;2022-12-29T10:26:36;10.00;99.90
15239;DHT22;7722;53.274;9.500;2022-12-29T10:29:05;10.00;99.90
15239;DHT22;7722;53.274;9.500;2022-12-29T10:31:37;10.00;99.90
15239;DHT22;7722;53.274;9.500;2022-12-29T10:34:15;10.00;99.90
15239;DHT22;7722;53.274;9.500;2022-12-29T10:36:48;9.90;99.90
15239;DHT22;7722;53.274;9.500;2022-12-29T10:39:21;10.00;99.90
15239;DHT22;7722;53.274;9.500;2022-12-29T10:41:53;10.00;99.90
15239;DHT22;7722;53.274;9.500;2022-12-29T10:44:23;10.30;99.90
15239;DHT22;7722;53.274;9.500;2022-12-29T10:46:57;10.30;99.90
15239;DHT22;7722;53.274;9.500;2022-12-29T10:49:28;10.30;99.90
15239;DHT22;7722;53.274;9.500;2022-12-29T10:51:59;10.20;99.90
15239;DHT22;7722;53.274;9.500;2022-12-29T10:54:33;10.10;99.90
15239;DHT22;7722;53.274;9.500;2022-12-29T10:57:05;10.00;99.90
15239;DHT22;7722;53.274;9.500;2022-12-29T10:59:36;9.90;99.90
15239;DHT22;7722;53.274;9.500;2022-12-29T11:02:19;9.90;99.90
15239;DHT22;7722;53.274;9.500;2022-12-29T11:04:57;9.90;99.90
15239;DHT22;7722;53.274;9.500;2022-12-29T11:07:28;10.00;99.90
15239;DHT22;7722;53.274;9.500;2022-12-29T11:10:16;10.20;99.90
15239;DHT22;7722;53.274;9.500;2022-12-29T11:12:55;10.30;99.90
15239;DHT22;7722;53.274;9.500;2022-12-29T11:15:23;10.20;99.90
15239;DHT22;7722;53.274;9.500;2022-12-29T11:17:52;10.10;99.90
15239;DHT22;7722;53.274;9.500;2022-12-29T11:20:28;10.10;99.90
15239;DHT22;7722;53.274;9.500;2022-12-29T11:22:55;10.00;99.90
15239;DHT22;7722;53.274;9.500;2022-12-29T11:25:22;10.00;99.90
15239;DHT22;7722;53.274;9.500;2022-12-29T11:27:56;10.00;99.90
15239;DHT22;7722;53.274;9.500;2022-12-29T11:30:25;10.00;99.90
15239;DHT22;7722;53.274;9.500;2022-12-29T11:32:53;10.00;99.90
15239;DHT22;7722;53.274;9.500;2022-12-29T11:35:33;10.20;99.90
15239;DHT22;7722;53.274;9.500;2022-12-29T11:38:01;10.10;99.90
15239;DHT22;7722;53.274;9.500;2022-12-29T11:40:29;10.10;99.90
15239;DHT22;7722;53.274;9.500;2022-12-29T11:42:58;10.00;99.90
15239;DHT22;7722;53.274;9.500;2022-12-29T11:45:30;10.00;99.90
15239;DHT22;7722;53.274;9.500;2022-12-29T11:48:00;10.10;99.90
15239;DHT22;7722;53.274;9.500;2022-12-29T11:50:31;10.10;99.90
15239;DHT22;7722;53.274;9.500;2022-12-29T11:53:01;10.00;99.90
15239;DHT22;7722;53.274;9.500;2022-12-29T11:55:30;10.10;99.90
15239;DHT22;7722;53.274;9.500;2022-12-29T11:58:00;10.20;99.90
15239;DHT22;7722;53.274;9.500;2022-12-29T12:00:31;10.30;99.90
15239;DHT22;7722;53.274;9.500;2022-12-29T12:03:02;10.40;99.90
15239;DHT22;7722;53.274;9.500;2022-12-29T12:05:39;10.50;99.90
15239;DHT22;7722;53.274;9.500;2022-12-29T12:08:11;10.50;99.90
15239;DHT22;7722;53.274;9.500;2022-12-29T12:10:44;10.50;99.90
15239;DHT22;7722;53.274;9.500;2022-12-29T12:13:19;10.50;99.90
15239;DHT22;7722;53.274;9.500;2022-12-29T12:15:51;10.40;99.90
15239;DHT22;7722;53.274;9.500;2022-12-29T12:18:28;10.40;99.90
15239;DHT22;7722;53.274;9.500;2022-12-29T12:21:04;10.30;99.90
15239;DHT22;7722;53.274;9.500;2022-12-29T12:23:38;10.30;99.90
15239;DHT22;7722;53.274;9.500;2022-12-29T12:26:12;10.30;99.90
15239;DHT22;7722;53.274;9.500;2022-12-29T12:28:48;10.30;99.90
15239;DHT22;7722;53.274;9.500;2022-12-29T12:31:21;10.30;99.90
15239;DHT22;7722;53.274;9.500;2022-12-29T12:33:58;10.30;99.90
15239;DHT22;7722;53.274;9.500;2022-12-29T12:36:49;10.30;99.90
15239;DHT22;7722;53.274;9.500;2022-12-29T12:39:26;10.30;99.90
15239;DHT22;7722;53.274;9.500;2022-12-29T12:42:06;10.40;99.90
15239;DHT22;7722;53.274;9.500;2022-12-29T12:44:54;10.40;99.90
15239;DHT22;7722;53.274;9.500;2022-12-29T12:47:35;10.40;99.90
15239;DHT22;7722;53.274;9.500;2022-12-29T12:50:17;10.50;99.90
15239;DHT22;7722;53.274;9.500;2022-12-29T12:53:28;10.40;99.90
15239;DHT22;7722;53.274;9.500;2022-12-29T12:56:15;10.40;99.90
15239;DHT22;7722;53.274;9.500;2022-12-29T12:58:52;10.40;99.90
15239;DHT22;7722;53.274;9.500;2022-12-29T13:01:33;10.40;99.90
15239;DHT22;7722;53.274;9.500;2022-12-29T13:04:32;10.30;99.90
15239;DHT22;7722;53.274;9.500;2022-12-29T13:07:13;10.30;99.90
15239;DHT22;7722;53.274;9.500;2022-12-29T13:09:54;10.40;99.90
15239;DHT22;7722;53.274;9.500;2022-12-29T13:12:32;10.40;99.90
15239;DHT22;7722;53.274;9.500;2022-12-29T13:15:23;10.40;99.90
15239;DHT22;7722;53.274;9.500;2022-12-29T13:17:59;10.30;99.90
15239;DHT22;7722;53.274;9.500;2022-12-29T13:20:38;10.30;99.90
15239;DHT22;7722;53.274;9.500;2022-12-29T13:23:11;10.30;99.90
15239;DHT22;7722;53.274;9.500;2022-12-29T13:25:44;10.30;99.90
15239;DHT22;7722;53.274;9.500;2022-12-29T13:28:19;10.20;99.90
15239;DHT22;7722;53.274;9.500;2022-12-29T13:30:56;10.10;99.90
15239;DHT22;7722;53.274;9.500;2022-12-29T13:33:31;10.00;99.90
15239;DHT22;7722;53.274;9.500;2022-12-29T13:36:05;10.00;99.90
15239;DHT22;7722;53.274;9.500;2022-12-29T13:38:37;9.80;99.90
15239;DHT22;7722;53.274;9.500;2022-12-29T13:41:09;9.80;99.90
15239;DHT22;7722;53.274;9.500;2022-12-29T13:43:41;9.70;99.90
15239;DHT22;7722;53.274;9.500;2022-12-29T13:46:12;9.60;99.90
15239;DHT22;7722;53.274;9.500;2022-12-29T13:48:44;9.60;99.90
15239;DHT22;7722;53.274;9.500;2022-12-29T13:51:13;9.60;99.90
15239;DHT22;7722;53.274;9.500;2022-12-29T13:53:54;9.60;99.90
15239;DHT22;7722;53.274;9.500;2022-12-29T13:56:28;9.60;99.90
15239;DHT22;7722;53.274;9.500;2022-12-29T13:59:04;9.60;99.90
15239;DHT22;7722;53.274;9.500;2022-12-29T14:01:41;9.60;99.90
15239;DHT22;7722;53.274;9.500;2022-12-29T14:04:13;9.60;99.90
15239;DHT22;7722;53.274;9.500;2022-12-29T14:06:40;9.60;99.90
15239;DHT22;7722;53.274;9.500;2022-12-29T14:12:21;9.50;99.90
15239;DHT22;7722;53.274;9.500;2022-12-29T14:14:52;9.50;99.90
15239;DHT22;7722;53.274;9.500;2022-12-29T14:17:21;9.40;99.90
15239;DHT22;7722;53.274;9.500;2022-12-29T14:19:52;9.40;99.90
15239;DHT22;7722;53.274;9.500;2022-12-29T14:22:23;9.50;99.90
15239;DHT22;7722;53.274;9.500;2022-12-29T14:24:51;9.50;99.90
15239;DHT22;7722;53.274;9.500;2022-12-29T14:27:53;9.50;99.90
15239;DHT22;7722;53.274;9.500;2022-12-29T14:30:49;9.50;99.90
15239;DHT22;7722;53.274;9.500;2022-12-29T14:33:17;9.50;99.90
15239;DHT22;7722;53.274;9.500;2022-12-29T14:35:46;9.40;99.90
15239;DHT22;7722;53.274;9.500;2022-12-29T14:38:17;9.40;99.90
15239;DHT22;7722;53.274;9.500;2022-12-29T14:40:46;9.40;99.90
15239;DHT22;7722;53.274;9.500;2022-12-29T14:43:21;9.30;99.90
15239;DHT22;7722;53.274;9.500;2022-12-29T14:45:57;9.20;99.90
15239;DHT22;7722;53.274;9.500;2022-12-29T14:48:39;9.20;99.90
15239;DHT22;7722;53.274;9.500;2022-12-29T14:51:24;9.10;99.90
15239;DHT22;7722;53.274;9.500;2022-12-29T14:53:53;9.10;99.90
15239;DHT22;7722;53.274;9.500;2022-12-29T14:56:24;9.00;99.90
15239;DHT22;7722;53.274;9.500;2022-12-29T14:58:54;8.90;99.90
15239;DHT22;7722;53.274;9.500;2022-12-29T15:01:27;8.90;99.90
15239;DHT22;7722;53.274;9.500;2022-12-29T15:04:00;8.90;99.90
15239;DHT22;7722;53.274;9.500;2022-12-29T15:06:30;8.80;99.90
15239;DHT22;7722;53.274;9.500;2022-12-29T15:09:03;8.90;99.90
15239;DHT22;7722;53.274;9.500;2022-12-29T15:11:51;8.90;99.90
15239;DHT22;7722;53.274;9.500;2022-12-29T15:14:32;8.90;99.90
15239;DHT22;7722;53.274;9.500;2022-12-29T15:17:00;8.90;99.90
15239;DHT22;7722;53.274;9.500;2022-12-29T15:19:27;8.90;99.90
15239;DHT22;7722;53.274;9.500;2022-12-29T15:21:55;8.90;99.90
15239;DHT22;7722;53.274;9.500;2022-12-29T15:24:24;8.90;99.90
15239;DHT22;7722;53.274;9.500;2022-12-29T15:26:53;8.90;99.90
15239;DHT22;7722;53.274;9.500;2022-12-29T15:29:33;8.80;99.90
15239;DHT22;7722;53.274;9.500;2022-12-29T15:32:17;8.70;99.90
15239;DHT22;7722;53.274;9.500;2022-12-29T15:34:45;8.60;99.90
15239;DHT22;7722;53.274;9.500;2022-12-29T15:37:20;8.50;99.90
15239;DHT22;7722;53.274;9.500;2022-12-29T15:39:48;8.50;99.90
15239;DHT22;7722;53.274;9.500;2022-12-29T15:45:11;8.40;99.90
15239;DHT22;7722;53.274;9.500;2022-12-29T15:47:40;8.40;99.90
15239;DHT22;7722;53.274;9.500;2022-12-29T15:50:14;8.40;99.90
15239;DHT22;7722;53.274;9.500;2022-12-29T15:52:41;8.40;99.90
15239;DHT22;7722;53.274;9.500;2022-12-29T15:55:19;8.50;99.90
15239;DHT22;7722;53.274;9.500;2022-12-29T15:57:47;8.50;99.90
15239;DHT22;7722;53.274;9.500;2022-12-29T16:00:26;8.60;99.90
15239;DHT22;7722;53.274;9.500;2022-12-29T16:02:54;8.60;99.90
15239;DHT22;7722;53.274;9.500;2022-12-29T16:05:22;8.60;99.90
15239;DHT22;7722;53.274;9.500;2022-12-29T16:07:54;8.60;99.90
15239;DHT22;7722;53.274;9.500;2022-12-29T16:10:36;8.60;99.90
15239;DHT22;7722;53.274;9.500;2022-12-29T16:13:13;8.60;99.90
15239;DHT22;7722;53.274;9.500;2022-12-29T16:15:46;8.50;99.90
15239;DHT22;7722;53.274;9.500;2022-12-29T16:18:21;8.50;99.90
15239;DHT22;7722;53.274;9.500;2022-12-29T16:20:50;8.50;99.90
15239;DHT22;7722;53.274;9.500;2022-12-29T16:23:21;8.40;99.90
15239;DHT22;7722;53.274;9.500;2022-12-29T16:25:49;8.40;99.90
15239;DHT22;7722;53.274;9.500;2022-12-29T16:28:22;8.30;99.90
15239;DHT22;7722;53.274;9.500;2022-12-29T16:30:59;8.30;99.90
15239;DHT22;7722;53.274;9.500;2022-12-29T16:33:44;8.20;99.90
15239;DHT22;7722;53.274;9.500;2022-12-29T16:36:26;8.20;99.90